createdAt,value
2022-12-15T00:01:09.857Z,70.90
2022-12-15T00:04:01.497Z,71.10
2022-12-15T00:06:52.101Z,71.40
2022-12-15T00:09:42.193Z,71.90
2022-12-15T00:12:32.226Z,72.30
2022-12-15T00:15:23.034Z,72.60
2022-12-15T00:18:13.164Z,72.90
2022-12-15T00:21:04.626Z,73.30
2022-12-15T00:23:55.186Z,73.60
2022-12-15T00:26:45.652Z,73.90
2022-12-15T00:29:36.328Z,74.30
2022-12-15T00:32:26.663Z,74.60
2022-12-15T00:35:17.145Z,74.80
2022-12-15T00:38:08.744Z,75.40
2022-12-15T00:40:40.511Z,77.30
2022-12-15T00:43:12.359Z,78.70
2022-12-15T00:46:02.867Z,79.20
2022-12-15T00:48:34.569Z,79.40
2022-12-15T00:51:06.445Z,79.30
2022-12-15T00:53:58.061Z,79.10
2022-12-15T00:56:48.060Z,78.70
2022-12-15T00:59:41.481Z,78.30
2022-12-15T01:02:31.949Z,76.80
2022-12-15T01:05:22.610Z,75.70
2022-12-15T01:08:14.235Z,75.30
2022-12-15T01:11:05.528Z,75.10
2022-12-15T01:13:55.916Z,75.20
2022-12-15T01:16:46.091Z,75.30
2022-12-15T01:19:36.507Z,75.50
2022-12-15T01:22:08.417Z,75.70
2022-12-15T01:24:40.323Z,75.80
2022-12-15T01:27:13.952Z,76.00
2022-12-15T01:29:45.645Z,76.10
2022-12-15T01:32:17.300Z,76.30
2022-12-15T01:34:48.991Z,76.50
2022-12-15T01:37:20.618Z,76.70
2022-12-15T01:40:11.033Z,76.90
2022-12-15T01:42:44.213Z,77.20
2022-12-15T01:45:36.679Z,77.40
2022-12-15T01:48:10.319Z,77.50
2022-12-15T01:50:43.683Z,77.70
2022-12-15T01:53:15.679Z,78.00
2022-12-15T01:55:49.591Z,78.30
2022-12-15T01:58:23.144Z,78.50
2022-12-15T02:00:54.813Z,79.20
2022-12-15T02:03:26.544Z,78.80
2022-12-15T02:05:59.776Z,78.90
2022-12-15T02:08:31.698Z,79.10
2022-12-15T02:11:22.272Z,79.20
2022-12-15T02:13:59.292Z,79.30
2022-12-15T02:16:35.135Z,79.50
2022-12-15T02:19:17.703Z,79.70
2022-12-15T02:21:56.203Z,79.90
2022-12-15T02:24:38.542Z,80.10
2022-12-15T02:27:21.694Z,80.20
2022-12-15T02:30:13.659Z,80.40
2022-12-15T02:32:48.998Z,80.50
2022-12-15T02:35:23.221Z,80.60
2022-12-15T02:37:54.916Z,80.70
2022-12-15T02:40:26.551Z,80.80
2022-12-15T02:42:59.185Z,81.00
2022-12-15T02:45:36.140Z,81.10
2022-12-15T02:48:13.732Z,81.20
2022-12-15T02:50:51.030Z,81.30
2022-12-15T02:53:31.792Z,81.40
2022-12-15T02:56:06.407Z,81.50
2022-12-15T02:58:40.051Z,81.60
2022-12-15T03:01:14.796Z,81.80
2022-12-15T03:03:47.125Z,81.90
2022-12-15T03:06:18.906Z,81.90
2022-12-15T03:08:50.508Z,82.00
2022-12-15T03:11:22.155Z,82.10
2022-12-15T03:13:54.117Z,82.10
2022-12-15T03:16:27.335Z,82.20
2022-12-15T03:18:59.001Z,82.30
2022-12-15T03:21:30.589Z,82.30
2022-12-15T03:24:02.241Z,82.30
2022-12-15T03:26:33.892Z,82.50
2022-12-15T03:29:05.494Z,82.70
2022-12-15T03:31:38.521Z,82.90
2022-12-15T03:34:10.302Z,83.00
2022-12-15T03:36:41.936Z,83.10
2022-12-15T03:39:13.558Z,83.20
2022-12-15T03:41:45.143Z,83.20
2022-12-15T03:44:16.823Z,83.20
2022-12-15T03:46:49.796Z,83.30
2022-12-15T03:49:21.422Z,83.40
2022-12-15T03:51:53.849Z,83.40
2022-12-15T03:54:25.909Z,83.50
2022-12-15T03:56:57.495Z,83.60
2022-12-15T03:59:29.094Z,83.70
2022-12-15T04:02:02.255Z,83.80
2022-12-15T04:04:33.969Z,83.90
2022-12-15T04:07:05.564Z,83.80
2022-12-15T04:09:37.278Z,83.80
2022-12-15T04:12:10.491Z,83.90
2022-12-15T04:14:42.566Z,84.00
2022-12-15T04:17:15.578Z,84.00
2022-12-15T04:20:05.879Z,84.00
2022-12-15T04:22:38.347Z,84.60
2022-12-15T04:25:29.426Z,84.30
2022-12-15T04:28:19.585Z,84.40
2022-12-15T04:31:10.190Z,84.40
2022-12-15T04:34:03.741Z,84.50
2022-12-15T04:36:54.297Z,84.60
2022-12-15T04:39:44.844Z,84.60
2022-12-15T04:42:34.885Z,84.70
2022-12-15T04:45:26.109Z,84.80
2022-12-15T04:48:16.271Z,84.80
2022-12-15T04:51:07.571Z,84.80
2022-12-15T04:53:57.795Z,84.80
2022-12-15T04:56:47.871Z,84.90
2022-12-15T04:59:40.274Z,85.00
2022-12-15T05:02:30.702Z,85.10
2022-12-15T05:05:21.018Z,85.20
2022-12-15T05:08:15.886Z,85.20
2022-12-15T05:11:05.884Z,85.30
2022-12-15T05:13:56.274Z,85.40
2022-12-15T05:16:46.483Z,85.40
2022-12-15T05:19:36.610Z,85.40
2022-12-15T05:22:26.639Z,85.50
2022-12-15T05:25:18.139Z,85.50
2022-12-15T05:28:08.162Z,85.60
2022-12-15T05:30:58.491Z,85.70
2022-12-15T05:33:31.004Z,85.70
2022-12-15T05:36:03.451Z,85.80
2022-12-15T05:38:35.013Z,85.90
2022-12-15T05:41:08.541Z,86.00
2022-12-15T05:43:40.118Z,86.50
2022-12-15T05:46:11.781Z,86.10
2022-12-15T05:48:43.479Z,86.20
2022-12-15T05:51:15.145Z,86.20
2022-12-15T05:53:46.731Z,86.30
2022-12-15T05:56:20.395Z,86.40
2022-12-15T05:58:52.303Z,86.50
2022-12-15T06:01:24.738Z,86.50
2022-12-15T06:03:56.405Z,86.60
2022-12-15T06:06:28.193Z,86.70
2022-12-15T06:08:59.793Z,86.70
2022-12-15T06:11:32.752Z,86.80
2022-12-15T06:14:04.480Z,86.90
2022-12-15T06:16:42.593Z,87.10
2022-12-15T06:19:21.666Z,87.10
2022-12-15T06:21:53.282Z,87.10
2022-12-15T06:24:25.890Z,87.10
2022-12-15T06:26:59.263Z,87.20
2022-12-15T06:29:30.860Z,87.30
2022-12-15T06:32:03.900Z,87.30
2022-12-15T06:34:35.494Z,87.40
2022-12-15T06:37:07.101Z,87.50
2022-12-15T06:39:38.723Z,87.50
2022-12-15T06:42:11.729Z,87.50
2022-12-15T06:44:43.404Z,87.60
2022-12-15T06:47:15.047Z,87.60
2022-12-15T06:49:46.722Z,87.70
2022-12-15T06:52:18.300Z,87.80
2022-12-15T06:54:50.002Z,87.80
2022-12-15T06:57:22.963Z,87.90
2022-12-15T06:59:54.622Z,87.90
2022-12-15T07:02:29.085Z,88.00
2022-12-15T07:05:01.046Z,88.00
2022-12-15T07:07:32.759Z,88.00
2022-12-15T07:10:04.833Z,88.00
2022-12-15T07:12:37.784Z,88.10
2022-12-15T07:15:11.238Z,88.10
2022-12-15T07:17:42.959Z,88.10
2022-12-15T07:20:14.646Z,88.20
2022-12-15T07:22:49.805Z,88.20
2022-12-15T07:25:21.440Z,88.70
2022-12-15T07:27:54.374Z,88.30
2022-12-15T07:30:25.980Z,88.30
2022-12-15T07:32:57.591Z,88.20
2022-12-15T07:35:29.226Z,88.20
2022-12-15T07:38:00.896Z,88.20
2022-12-15T07:40:32.642Z,88.30
2022-12-15T07:43:05.592Z,88.40
2022-12-15T07:45:37.271Z,88.50
2022-12-15T07:48:08.935Z,88.50
2022-12-15T07:50:40.521Z,88.60
2022-12-15T07:53:12.121Z,88.70
2022-12-15T07:56:06.372Z,88.80
2022-12-15T07:58:36.842Z,89.00
2022-12-15T08:01:10.312Z,89.00
2022-12-15T08:03:42.156Z,89.20
2022-12-15T08:06:14.799Z,89.20
2022-12-15T08:08:50.314Z,89.40
2022-12-15T08:11:23.031Z,89.40
2022-12-15T08:14:05.429Z,89.50
2022-12-15T08:16:39.815Z,89.60
2022-12-15T08:19:12.358Z,89.70
2022-12-15T08:21:45.528Z,89.70
2022-12-15T08:24:17.611Z,89.80
2022-12-15T08:26:50.659Z,89.70
2022-12-15T08:29:53.722Z,89.60
2022-12-15T08:32:15.455Z,89.60
2022-12-15T08:34:49.269Z,89.70
2022-12-15T08:37:20.848Z,89.90
2022-12-15T08:39:52.567Z,89.90
2022-12-15T08:42:24.156Z,89.90
2022-12-15T08:44:57.111Z,89.90
2022-12-15T08:47:28.883Z,89.90
2022-12-15T08:50:00.788Z,89.90
2022-12-15T08:52:32.428Z,89.90
2022-12-15T08:55:04.704Z,89.90
2022-12-15T08:57:36.341Z,89.70
2022-12-15T09:00:10.696Z,89.60
2022-12-15T09:02:42.670Z,89.50
2022-12-15T09:05:14.451Z,89.40
2022-12-15T09:07:46.058Z,89.30
2022-12-15T09:10:21.605Z,89.30
2022-12-15T09:12:53.227Z,89.20
2022-12-15T09:15:45.358Z,89.00
2022-12-15T09:18:17.784Z,88.90
2022-12-15T09:20:49.381Z,88.70
2022-12-15T09:23:21.311Z,88.70
2022-12-15T09:25:58.908Z,88.60
2022-12-15T09:28:31.917Z,88.50
2022-12-15T09:31:05.402Z,88.50
2022-12-15T09:33:37.759Z,88.50
2022-12-15T09:36:10.347Z,88.50
2022-12-15T09:38:42.564Z,88.40
2022-12-15T09:41:20.067Z,88.40
2022-12-15T09:43:55.049Z,88.50
2022-12-15T09:46:35.926Z,88.60
2022-12-15T09:49:11.726Z,88.80
2022-12-15T09:51:46.961Z,88.90
2022-12-15T09:54:19.431Z,89.10
2022-12-15T09:56:55.020Z,89.30
2022-12-15T09:59:31.703Z,89.60
2022-12-15T10:02:22.676Z,89.80
2022-12-15T10:04:56.769Z,89.90
2022-12-15T10:07:32.119Z,90.00
2022-12-15T10:10:05.012Z,90.00
2022-12-15T10:12:37.236Z,90.10
2022-12-15T10:15:12.989Z,90.10
2022-12-15T10:17:48.515Z,90.10
2022-12-15T10:20:24.072Z,90.10
2022-12-15T10:22:56.881Z,90.10
2022-12-15T10:25:32.113Z,90.20
2022-12-15T10:28:08.748Z,90.20
2022-12-15T10:30:43.757Z,90.20
2022-12-15T10:33:21.193Z,90.20
2022-12-15T10:35:53.557Z,90.20
2022-12-15T10:38:26.114Z,90.20
2022-12-15T10:40:59.273Z,90.20
2022-12-15T10:43:33.714Z,90.50
2022-12-15T10:46:11.838Z,90.30
2022-12-15T10:48:48.605Z,90.30
2022-12-15T10:51:21.651Z,90.30
2022-12-15T10:53:54.145Z,90.30
2022-12-15T10:59:23.429Z,90.30
2022-12-15T11:01:55.180Z,90.40
2022-12-15T11:04:29.164Z,90.40
2022-12-15T11:07:01.852Z,90.40
2022-12-15T11:09:34.792Z,90.50
2022-12-15T11:12:35.064Z,90.40
2022-12-15T11:15:32.704Z,90.30
2022-12-15T11:18:11.155Z,90.20
2022-12-15T11:20:48.690Z,90.20
2022-12-15T11:23:24.723Z,90.10
2022-12-15T11:26:00.457Z,90.10
2022-12-15T11:28:39.585Z,90.00
2022-12-15T11:31:17.457Z,90.00
2022-12-15T11:33:50.941Z,90.00
2022-12-15T11:36:34.208Z,90.00
2022-12-15T11:39:08.714Z,89.80
2022-12-15T11:41:44.582Z,89.80
2022-12-15T11:44:22.451Z,89.60
2022-12-15T11:46:58.414Z,89.50
2022-12-15T11:49:50.866Z,89.40
2022-12-15T11:52:31.857Z,89.40
2022-12-15T11:55:07.672Z,89.20
2022-12-15T11:57:51.095Z,89.10
2022-12-15T12:00:23.348Z,89.00
2022-12-15T12:03:01.935Z,89.00
2022-12-15T12:05:42.357Z,88.80
2022-12-15T12:08:25.197Z,88.60
2022-12-15T12:10:59.591Z,88.50
2022-12-15T12:13:36.470Z,88.40
2022-12-15T12:16:14.192Z,88.40
2022-12-15T12:18:50.466Z,88.30
2022-12-15T12:21:24.788Z,88.20
2022-12-15T12:24:00.148Z,88.00
2022-12-15T12:26:35.193Z,87.90
2022-12-15T12:29:11.445Z,87.80
2022-12-15T12:31:47.909Z,87.70
2022-12-15T12:34:25.761Z,87.70
2022-12-15T12:37:01.053Z,87.60
2022-12-15T12:39:34.308Z,87.60
2022-12-15T12:42:09.315Z,87.50
2022-12-15T12:44:40.922Z,87.40
2022-12-15T12:47:14.821Z,87.30
2022-12-15T12:49:50.191Z,87.40
2022-12-15T12:52:22.780Z,87.30
2022-12-15T12:54:58.587Z,87.30
2022-12-15T12:57:33.736Z,87.20
2022-12-15T13:00:14.262Z,87.30
2022-12-15T13:03:16.374Z,87.30
2022-12-15T13:05:50.633Z,87.30
2022-12-15T13:08:40.136Z,87.40
2022-12-15T13:11:42.055Z,87.50
2022-12-15T13:17:28.383Z,87.40
2022-12-15T13:20:15.682Z,87.30
2022-12-15T13:25:40.343Z,87.20
2022-12-15T13:28:27.074Z,87.10
2022-12-15T13:31:17.725Z,87.00
2022-12-15T13:33:55.627Z,86.90
2022-12-15T13:36:43.132Z,87.00
2022-12-15T13:39:34.669Z,87.00
2022-12-15T13:42:34.282Z,87.00
2022-12-15T13:45:21.843Z,87.10
2022-12-15T13:47:54.735Z,87.00
2022-12-15T13:50:38.433Z,87.00
2022-12-15T13:53:30.476Z,86.90
2022-12-15T13:56:06.915Z,86.70
2022-12-15T13:58:41.311Z,86.70
2022-12-15T14:01:28.604Z,86.60
2022-12-15T14:04:06.250Z,86.70
2022-12-15T14:06:43.890Z,86.60
2022-12-15T14:09:16.858Z,86.60
2022-12-15T14:11:53.933Z,86.60
2022-12-15T14:14:27.749Z,86.50
2022-12-15T14:17:00.394Z,86.50
2022-12-15T14:19:39.038Z,86.40
2022-12-15T14:22:27.097Z,86.40
2022-12-15T14:25:13.562Z,86.20
2022-12-15T14:27:45.321Z,86.20
2022-12-15T14:30:23.363Z,86.10
2022-12-15T14:32:56.695Z,86.10
2022-12-15T14:35:30.497Z,86.10
2022-12-15T14:38:06.799Z,86.10
2022-12-15T14:40:39.841Z,86.00
2022-12-15T14:43:13.638Z,86.00
2022-12-15T14:45:45.614Z,86.10
2022-12-15T14:48:40.423Z,86.20
2022-12-15T14:51:14.449Z,86.20
2022-12-15T14:53:49.941Z,86.10
2022-12-15T14:56:30.309Z,86.10
2022-12-15T14:59:04.346Z,86.10
2022-12-15T15:01:39.882Z,86.00
2022-12-15T15:03:07.367Z,87.40
2022-12-15T15:03:12.027Z,87.20
2022-12-15T15:03:12.254Z,90.30
2022-12-15T15:04:22.562Z,85.90
2022-12-15T15:06:54.977Z,85.80
2022-12-15T15:09:30.221Z,85.70
2022-12-15T15:12:03.948Z,85.70
2022-12-15T15:14:38.616Z,85.60
2022-12-15T15:17:16.935Z,85.50
2022-12-15T15:19:49.619Z,85.50
2022-12-15T15:22:26.867Z,85.40
2022-12-15T15:25:00.481Z,85.40
2022-12-15T15:27:34.786Z,85.40
2022-12-15T15:30:12.479Z,85.80
2022-12-15T15:32:54.491Z,85.20
2022-12-15T15:35:30.731Z,85.20
2022-12-15T15:38:05.041Z,85.10
2022-12-15T15:40:37.983Z,85.10
2022-12-15T15:43:11.421Z,85.10
2022-12-15T15:45:43.292Z,85.10
2022-12-15T15:48:16.846Z,85.10
2022-12-15T15:50:48.513Z,85.00
2022-12-15T15:53:22.233Z,85.20
2022-12-15T15:55:55.810Z,87.30
2022-12-15T15:58:27.431Z,89.50
2022-12-15T16:00:59.127Z,90.30
2022-12-15T16:03:30.892Z,90.70
2022-12-15T16:06:03.148Z,90.60
2022-12-15T16:08:36.193Z,90.40
2022-12-15T16:11:10.115Z,90.10
2022-12-15T16:13:41.748Z,89.60
2022-12-15T16:16:16.367Z,88.70
2022-12-15T16:18:48.063Z,87.90
2022-12-15T16:21:19.813Z,87.00
2022-12-15T16:23:52.294Z,86.40
2022-12-15T16:26:28.100Z,85.80
2022-12-15T16:28:59.792Z,85.10
2022-12-15T16:31:37.270Z,84.50
2022-12-15T16:34:13.022Z,84.00
2022-12-15T16:36:44.853Z,83.40
2022-12-15T16:39:24.387Z,82.90
2022-12-15T16:41:57.519Z,82.40
2022-12-15T16:44:29.445Z,82.00
2022-12-15T16:47:01.221Z,81.70
2022-12-15T16:49:39.817Z,81.30
2022-12-15T16:52:16.935Z,81.00
2022-12-15T16:54:49.115Z,80.70
2022-12-15T16:57:22.093Z,80.40
2022-12-15T16:59:53.671Z,80.20
2022-12-15T17:02:27.339Z,80.00
2022-12-15T17:04:59.187Z,79.70
2022-12-15T17:07:30.810Z,79.50
2022-12-15T17:10:03.203Z,79.30
2022-12-15T17:12:36.853Z,79.10
2022-12-15T17:15:15.860Z,79.00
2022-12-15T17:17:47.948Z,78.90
2022-12-15T17:20:29.712Z,78.50
2022-12-15T17:23:03.399Z,78.40
2022-12-15T17:26:18.061Z,78.10
2022-12-15T17:28:31.070Z,78.00
2022-12-15T17:31:03.046Z,78.00
2022-12-15T17:33:35.697Z,77.80
2022-12-15T17:36:14.653Z,78.10
2022-12-15T17:38:46.456Z,77.40
2022-12-15T17:41:42.259Z,77.20
2022-12-15T17:44:33.623Z,77.00
2022-12-15T17:47:07.693Z,76.80
2022-12-15T17:49:39.594Z,76.60
2022-12-15T17:52:18.967Z,76.60
2022-12-15T17:54:50.932Z,76.60
2022-12-15T17:57:22.867Z,76.50
2022-12-15T17:59:55.808Z,76.40
2022-12-15T18:02:28.309Z,76.30
2022-12-15T18:05:00.011Z,76.20
2022-12-15T18:07:31.673Z,76.10
2022-12-15T18:10:03.405Z,76.00
2022-12-15T18:12:36.126Z,76.00
2022-12-15T18:15:13.932Z,75.90
2022-12-15T18:17:45.574Z,75.80
2022-12-15T18:20:17.705Z,75.60
2022-12-15T18:22:49.672Z,75.60
2022-12-15T18:25:22.263Z,75.50
2022-12-15T18:27:54.355Z,75.40
2022-12-15T18:30:27.513Z,75.20
2022-12-15T18:32:59.124Z,75.10
2022-12-15T18:35:33.549Z,74.90
2022-12-15T18:38:11.680Z,74.80
2022-12-15T18:40:44.797Z,74.80
2022-12-15T18:43:17.395Z,74.60
2022-12-15T18:45:51.129Z,74.60
2022-12-15T18:48:23.456Z,74.50
2022-12-15T18:50:56.125Z,74.40
2022-12-15T18:53:29.980Z,74.20
2022-12-15T18:56:02.876Z,74.10
2022-12-15T18:58:35.567Z,74.10
2022-12-15T19:01:08.934Z,74.10
2022-12-15T19:03:41.094Z,74.00
2022-12-15T19:06:25.343Z,74.10
2022-12-15T19:08:57.478Z,74.20
2022-12-15T19:11:32.449Z,74.20
2022-12-15T19:14:04.745Z,74.20
2022-12-15T19:16:56.059Z,74.10
2022-12-15T19:19:46.502Z,73.90
2022-12-15T19:22:26.937Z,73.80
2022-12-15T19:24:59.029Z,73.80
2022-12-15T19:27:30.647Z,73.80
2022-12-15T19:30:02.565Z,73.70
2022-12-15T19:32:35.621Z,73.60
2022-12-15T19:35:07.993Z,73.40
2022-12-15T19:37:40.481Z,73.40
2022-12-15T19:40:17.323Z,73.40
2022-12-15T19:42:49.283Z,73.20
2022-12-15T19:45:22.314Z,73.10
2022-12-15T19:47:55.411Z,72.90
2022-12-15T19:50:28.924Z,72.80
2022-12-15T19:53:01.407Z,72.70
2022-12-15T19:55:34.177Z,72.60
2022-12-15T19:58:15.601Z,72.50
2022-12-15T20:00:47.329Z,72.20
2022-12-15T20:03:20.741Z,72.10
2022-12-15T20:05:53.010Z,72.10
2022-12-15T20:08:26.187Z,72.00
2022-12-15T20:10:57.887Z,71.90
2022-12-15T20:13:30.077Z,71.90
2022-12-15T20:16:01.918Z,71.90
2022-12-15T20:18:35.306Z,71.80
2022-12-15T20:21:09.371Z,71.80
2022-12-15T20:23:44.976Z,71.80
2022-12-15T20:26:16.597Z,71.70
2022-12-15T20:28:48.268Z,71.40
2022-12-15T20:31:20.569Z,71.30
2022-12-15T20:33:53.917Z,71.20
2022-12-15T20:36:26.937Z,71.20
2022-12-15T20:38:58.931Z,71.00
2022-12-15T20:41:30.574Z,70.90
2022-12-15T20:44:02.187Z,70.80
2022-12-15T20:46:35.154Z,70.50
2022-12-15T20:49:13.099Z,70.50
2022-12-15T20:51:45.072Z,70.40
2022-12-15T20:54:18.545Z,70.50
2022-12-15T20:56:50.258Z,70.40
2022-12-15T20:59:21.859Z,70.40
2022-12-15T21:01:53.566Z,70.30
2022-12-15T21:04:28.486Z,70.90
2022-12-15T21:07:00.146Z,70.40
2022-12-15T21:09:31.851Z,70.20
2022-12-15T21:12:09.442Z,70.10
2022-12-15T21:14:41.227Z,70.00
2022-12-15T21:17:14.746Z,70.00
2022-12-15T21:19:48.645Z,69.90
2022-12-15T21:22:21.305Z,69.70
2022-12-15T21:24:53.998Z,69.60
2022-12-15T21:27:26.510Z,69.60
2022-12-15T21:29:58.085Z,69.50
2022-12-15T21:32:30.200Z,69.40
2022-12-15T21:35:03.474Z,69.30
2022-12-15T21:37:35.132Z,69.20
2022-12-15T21:40:07.707Z,69.30
2022-12-15T21:42:39.769Z,69.40
2022-12-15T21:45:15.491Z,69.20
2022-12-15T21:48:06.262Z,69.30
2022-12-15T21:50:40.985Z,69.10
2022-12-15T21:53:16.863Z,69.20
2022-12-15T21:55:48.540Z,69.10
2022-12-15T21:58:21.192Z,69.10
2022-12-15T22:00:52.841Z,69.20
2022-12-15T22:03:26.140Z,69.20
2022-12-15T22:05:59.467Z,69.20
2022-12-15T22:08:31.466Z,69.30
2022-12-15T22:11:06.522Z,69.30
2022-12-15T22:13:38.830Z,69.40
2022-12-15T22:16:10.447Z,69.30
2022-12-15T22:18:42.118Z,69.10
2022-12-15T22:21:15.492Z,69.00
2022-12-15T22:23:48.131Z,68.90
2022-12-15T22:26:21.488Z,68.90
2022-12-15T22:28:54.216Z,68.80
2022-12-15T22:31:27.140Z,68.80
2022-12-15T22:33:58.967Z,68.90
2022-12-15T22:36:32.169Z,68.80
2022-12-15T22:39:08.379Z,68.80
2022-12-15T22:41:41.049Z,68.80
2022-12-15T22:44:15.477Z,68.80
2022-12-15T22:46:48.149Z,68.50
2022-12-15T22:49:20.950Z,68.60
2022-12-15T22:51:54.964Z,68.60
2022-12-15T22:54:28.735Z,68.60
2022-12-15T22:57:01.546Z,68.50
2022-12-15T22:59:34.227Z,68.60
2022-12-15T23:02:05.984Z,68.50
2022-12-15T23:04:37.613Z,68.50
2022-12-15T23:07:10.533Z,68.60
2022-12-15T23:09:42.101Z,68.50
2022-12-15T23:12:13.724Z,68.50
2022-12-15T23:15:04.168Z,68.60
2022-12-15T23:17:35.750Z,68.50
2022-12-15T23:20:07.877Z,68.50
2022-12-15T23:22:40.814Z,68.50
2022-12-15T23:25:12.474Z,68.40
2022-12-15T23:27:44.742Z,68.30
2022-12-15T23:30:16.417Z,68.30
2022-12-15T23:32:48.042Z,68.30
2022-12-15T23:35:19.694Z,68.40
2022-12-15T23:37:52.804Z,68.50
2022-12-15T23:40:24.810Z,68.60
2022-12-15T23:42:56.404Z,68.40
2022-12-15T23:45:28.010Z,68.30
2022-12-15T23:47:59.632Z,68.40
2022-12-15T23:50:31.482Z,68.30
2022-12-15T23:53:04.559Z,68.30
2022-12-15T23:55:36.504Z,68.30
2022-12-15T23:58:08.110Z,68.30
